sensor_id;sensor_type;location;lat;lon;timestamp;P1;durP1;ratioP1;P2;durP2;ratioP2
52248;SDS011;38541;48.130;8.378;2023-09-12T00:01:34;6.18;;;5.18;;
52248;SDS011;38541;48.130;8.378;2023-09-12T00:04:00;4.70;;;4.13;;
52248;SDS011;38541;48.130;8.378;2023-09-12T00:06:27;7.25;;;5.05;;
52248;SDS011;38541;48.130;8.378;2023-09-12T00:08:53;5.10;;;4.60;;
52248;SDS011;38541;48.130;8.378;2023-09-12T00:11:20;4.93;;;4.38;;
52248;SDS011;38541;48.130;8.378;2023-09-12T00:13:46;5.10;;;4.30;;
52248;SDS011;38541;48.130;8.378;2023-09-12T00:16:13;5.07;;;4.32;;
52248;SDS011;38541;48.130;8.378;2023-09-12T00:18:40;7.35;;;5.13;;
52248;SDS011;38541;48.130;8.378;2023-09-12T00:21:07;5.88;;;4.85;;
52248;SDS011;38541;48.130;8.378;2023-09-12T00:23:33;6.28;;;5.00;;
52248;SDS011;38541;48.130;8.378;2023-09-12T00:26:00;6.88;;;4.78;;
52248;SDS011;38541;48.130;8.378;2023-09-12T00:28:27;6.75;;;4.35;;
52248;SDS011;38541;48.130;8.378;2023-09-12T00:30:54;5.47;;;4.78;;
52248;SDS011;38541;48.130;8.378;2023-09-12T00:33:21;6.25;;;4.75;;
52248;SDS011;38541;48.130;8.378;2023-09-12T00:35:48;8.15;;;5.03;;
52248;SDS011;38541;48.130;8.378;2023-09-12T00:38:14;5.50;;;5.00;;
52248;SDS011;38541;48.130;8.378;2023-09-12T00:40:41;9.02;;;5.10;;
52248;SDS011;38541;48.130;8.378;2023-09-12T00:43:08;5.80;;;5.05;;
52248;SDS011;38541;48.130;8.378;2023-09-12T00:45:36;5.18;;;4.68;;
52248;SDS011;38541;48.130;8.378;2023-09-12T00:48:04;6.07;;;4.38;;
52248;SDS011;38541;48.130;8.378;2023-09-12T00:50:32;5.68;;;5.03;;
52248;SDS011;38541;48.130;8.378;2023-09-12T00:52:59;6.68;;;4.88;;
52248;SDS011;38541;48.130;8.378;2023-09-12T00:55:28;6.93;;;5.00;;
52248;SDS011;38541;48.130;8.378;2023-09-12T00:57:55;6.57;;;4.80;;
52248;SDS011;38541;48.130;8.378;2023-09-12T01:00:22;5.07;;;4.45;;
52248;SDS011;38541;48.130;8.378;2023-09-12T01:02:48;7.35;;;5.28;;
52248;SDS011;38541;48.130;8.378;2023-09-12T01:05:17;6.57;;;5.10;;
52248;SDS011;38541;48.130;8.378;2023-09-12T01:07:44;6.65;;;5.32;;
52248;SDS011;38541;48.130;8.378;2023-09-12T01:10:10;7.18;;;5.35;;
52248;SDS011;38541;48.130;8.378;2023-09-12T01:12:37;6.72;;;5.25;;
52248;SDS011;38541;48.130;8.378;2023-09-12T01:15:04;8.02;;;5.03;;
52248;SDS011;38541;48.130;8.378;2023-09-12T01:17:35;6.22;;;5.30;;
52248;SDS011;38541;48.130;8.378;2023-09-12T01:20:02;5.57;;;4.90;;
52248;SDS011;38541;48.130;8.378;2023-09-12T01:22:36;5.35;;;4.85;;
52248;SDS011;38541;48.130;8.378;2023-09-12T01:28:22;6.53;;;4.05;;
52248;SDS011;38541;48.130;8.378;2023-09-12T01:30:51;4.82;;;4.32;;
52248;SDS011;38541;48.130;8.378;2023-09-12T01:33:19;5.93;;;4.95;;
52248;SDS011;38541;48.130;8.378;2023-09-12T01:35:47;5.30;;;4.80;;
52248;SDS011;38541;48.130;8.378;2023-09-12T01:38:13;7.18;;;4.47;;
52248;SDS011;38541;48.130;8.378;2023-09-12T01:40:46;6.13;;;4.60;;
52248;SDS011;38541;48.130;8.378;2023-09-12T01:43:15;7.03;;;4.57;;
52248;SDS011;38541;48.130;8.378;2023-09-12T01:45:44;5.65;;;4.63;;
52248;SDS011;38541;48.130;8.378;2023-09-12T01:48:13;5.70;;;4.72;;
52248;SDS011;38541;48.130;8.378;2023-09-12T01:50:45;6.55;;;5.13;;
52248;SDS011;38541;48.130;8.378;2023-09-12T01:53:13;9.05;;;5.50;;
52248;SDS011;38541;48.130;8.378;2023-09-12T01:55:44;5.35;;;4.85;;
52248;SDS011;38541;48.130;8.378;2023-09-12T01:58:12;7.10;;;5.78;;
52248;SDS011;38541;48.130;8.378;2023-09-12T02:00:40;7.03;;;5.32;;
52248;SDS011;38541;48.130;8.378;2023-09-12T02:03:07;6.20;;;4.85;;
52248;SDS011;38541;48.130;8.378;2023-09-12T02:05:34;6.05;;;5.03;;
52248;SDS011;38541;48.130;8.378;2023-09-12T02:08:02;5.50;;;5.00;;
52248;SDS011;38541;48.130;8.378;2023-09-12T02:10:28;4.82;;;4.43;;
52248;SDS011;38541;48.130;8.378;2023-09-12T02:12:55;5.75;;;4.68;;
52248;SDS011;38541;48.130;8.378;2023-09-12T02:15:21;7.20;;;5.32;;
52248;SDS011;38541;48.130;8.378;2023-09-12T02:17:48;6.72;;;4.85;;
52248;SDS011;38541;48.130;8.378;2023-09-12T02:20:17;5.25;;;4.70;;
52248;SDS011;38541;48.130;8.378;2023-09-12T02:22:44;5.70;;;4.88;;
52248;SDS011;38541;48.130;8.378;2023-09-12T02:25:11;6.20;;;5.60;;
52248;SDS011;38541;48.130;8.378;2023-09-12T02:27:38;6.53;;;5.30;;
52248;SDS011;38541;48.130;8.378;2023-09-12T02:30:04;5.65;;;5.13;;
52248;SDS011;38541;48.130;8.378;2023-09-12T02:32:32;6.10;;;5.05;;
52248;SDS011;38541;48.130;8.378;2023-09-12T02:34:58;5.00;;;4.60;;
52248;SDS011;38541;48.130;8.378;2023-09-12T02:37:25;5.85;;;4.78;;
52248;SDS011;38541;48.130;8.378;2023-09-12T02:39:51;5.32;;;4.82;;
52248;SDS011;38541;48.130;8.378;2023-09-12T02:42:18;5.22;;;4.72;;
52248;SDS011;38541;48.130;8.378;2023-09-12T02:44:45;5.22;;;4.72;;
52248;SDS011;38541;48.130;8.378;2023-09-12T02:47:11;4.95;;;4.55;;
52248;SDS011;38541;48.130;8.378;2023-09-12T02:49:38;6.30;;;4.93;;
52248;SDS011;38541;48.130;8.378;2023-09-12T02:52:05;6.47;;;5.15;;
52248;SDS011;38541;48.130;8.378;2023-09-12T02:54:31;5.45;;;5.00;;
52248;SDS011;38541;48.130;8.378;2023-09-12T02:56:58;4.95;;;4.53;;
52248;SDS011;38541;48.130;8.378;2023-09-12T02:59:25;5.45;;;4.95;;
52248;SDS011;38541;48.130;8.378;2023-09-12T03:01:51;7.93;;;5.50;;
52248;SDS011;38541;48.130;8.378;2023-09-12T03:04:18;5.60;;;4.78;;
52248;SDS011;38541;48.130;8.378;2023-09-12T03:06:44;5.82;;;5.20;;
52248;SDS011;38541;48.130;8.378;2023-09-12T03:09:12;7.57;;;5.95;;
52248;SDS011;38541;48.130;8.378;2023-09-12T03:11:40;9.55;;;6.00;;
52248;SDS011;38541;48.130;8.378;2023-09-12T03:14:06;7.10;;;5.90;;
52248;SDS011;38541;48.130;8.378;2023-09-12T03:16:33;7.60;;;5.40;;
52248;SDS011;38541;48.130;8.378;2023-09-12T03:19:00;9.20;;;6.00;;
52248;SDS011;38541;48.130;8.378;2023-09-12T03:21:28;7.18;;;5.80;;
52248;SDS011;38541;48.130;8.378;2023-09-12T03:23:55;6.97;;;6.25;;
52248;SDS011;38541;48.130;8.378;2023-09-12T03:26:22;10.55;;;6.50;;
52248;SDS011;38541;48.130;8.378;2023-09-12T03:28:49;7.82;;;6.43;;
52248;SDS011;38541;48.130;8.378;2023-09-12T03:31:17;6.28;;;5.65;;
52248;SDS011;38541;48.130;8.378;2023-09-12T03:33:44;8.15;;;5.95;;
52248;SDS011;38541;48.130;8.378;2023-09-12T03:36:17;7.38;;;5.93;;
52248;SDS011;38541;48.130;8.378;2023-09-12T03:38:44;6.68;;;5.65;;
52248;SDS011;38541;48.130;8.378;2023-09-12T03:41:11;6.90;;;5.55;;
52248;SDS011;38541;48.130;8.378;2023-09-12T03:43:38;6.05;;;5.43;;
52248;SDS011;38541;48.130;8.378;2023-09-12T03:46:05;6.90;;;5.50;;
52248;SDS011;38541;48.130;8.378;2023-09-12T03:48:31;7.88;;;5.68;;
52248;SDS011;38541;48.130;8.378;2023-09-12T03:50:58;6.20;;;5.35;;
52248;SDS011;38541;48.130;8.378;2023-09-12T03:53:25;19.63;;;11.02;;
52248;SDS011;38541;48.130;8.378;2023-09-12T03:55:52;16.70;;;10.23;;
52248;SDS011;38541;48.130;8.378;2023-09-12T03:58:19;8.23;;;6.78;;
52248;SDS011;38541;48.130;8.378;2023-09-12T04:00:45;9.00;;;6.45;;
52248;SDS011;38541;48.130;8.378;2023-09-12T04:03:12;7.70;;;6.15;;
52248;SDS011;38541;48.130;8.378;2023-09-12T04:05:39;6.90;;;6.20;;
52248;SDS011;38541;48.130;8.378;2023-09-12T04:08:06;6.63;;;5.40;;
52248;SDS011;38541;48.130;8.378;2023-09-12T04:10:32;5.75;;;5.25;;
52248;SDS011;38541;48.130;8.378;2023-09-12T04:12:59;5.80;;;5.30;;
52248;SDS011;38541;48.130;8.378;2023-09-12T04:15:25;6.35;;;5.75;;
52248;SDS011;38541;48.130;8.378;2023-09-12T04:17:52;6.28;;;5.68;;
52248;SDS011;38541;48.130;8.378;2023-09-12T04:20:19;8.07;;;5.55;;
52248;SDS011;38541;48.130;8.378;2023-09-12T04:22:46;6.28;;;5.68;;
52248;SDS011;38541;48.130;8.378;2023-09-12T04:25:12;6.20;;;5.60;;
52248;SDS011;38541;48.130;8.378;2023-09-12T04:27:40;6.35;;;5.82;;
52248;SDS011;38541;48.130;8.378;2023-09-12T04:30:08;5.40;;;4.90;;
52248;SDS011;38541;48.130;8.378;2023-09-12T04:32:35;6.25;;;5.18;;
52248;SDS011;38541;48.130;8.378;2023-09-12T04:35:01;6.60;;;5.97;;
52248;SDS011;38541;48.130;8.378;2023-09-12T04:37:29;6.95;;;6.25;;
52248;SDS011;38541;48.130;8.378;2023-09-12T04:39:56;6.47;;;5.43;;
52248;SDS011;38541;48.130;8.378;2023-09-12T04:42:23;6.22;;;5.72;;
52248;SDS011;38541;48.130;8.378;2023-09-12T04:44:49;6.35;;;5.75;;
52248;SDS011;38541;48.130;8.378;2023-09-12T04:47:16;7.20;;;5.70;;
52248;SDS011;38541;48.130;8.378;2023-09-12T04:49:43;5.80;;;5.30;;
52248;SDS011;38541;48.130;8.378;2023-09-12T04:52:10;6.20;;;5.60;;
52248;SDS011;38541;48.130;8.378;2023-09-12T04:54:36;6.13;;;5.53;;
52248;SDS011;38541;48.130;8.378;2023-09-12T04:57:03;5.90;;;5.40;;
52248;SDS011;38541;48.130;8.378;2023-09-12T04:59:30;6.15;;;5.55;;
52248;SDS011;38541;48.130;8.378;2023-09-12T05:01:57;6.35;;;5.82;;
52248;SDS011;38541;48.130;8.378;2023-09-12T05:04:23;6.13;;;5.53;;
52248;SDS011;38541;48.130;8.378;2023-09-12T05:06:50;6.47;;;5.43;;
52248;SDS011;38541;48.130;8.378;2023-09-12T05:09:17;6.75;;;5.22;;
52248;SDS011;38541;48.130;8.378;2023-09-12T05:11:44;6.28;;;5.78;;
52248;SDS011;38541;48.130;8.378;2023-09-12T05:14:10;6.43;;;5.85;;
52248;SDS011;38541;48.130;8.378;2023-09-12T05:16:37;6.40;;;5.80;;
52248;SDS011;38541;48.130;8.378;2023-09-12T05:19:04;6.05;;;5.45;;
52248;SDS011;38541;48.130;8.378;2023-09-12T05:21:31;8.68;;;6.53;;
52248;SDS011;38541;48.130;8.378;2023-09-12T05:23:58;7.43;;;5.82;;
52248;SDS011;38541;48.130;8.378;2023-09-12T05:26:25;6.07;;;5.47;;
52248;SDS011;38541;48.130;8.378;2023-09-12T05:28:51;5.90;;;5.30;;
52248;SDS011;38541;48.130;8.378;2023-09-12T05:31:19;7.32;;;5.88;;
52248;SDS011;38541;48.130;8.378;2023-09-12T05:33:46;7.63;;;5.90;;
52248;SDS011;38541;48.130;8.378;2023-09-12T05:36:12;6.40;;;5.80;;
52248;SDS011;38541;48.130;8.378;2023-09-12T05:38:39;8.50;;;6.07;;
52248;SDS011;38541;48.130;8.378;2023-09-12T05:41:06;7.03;;;6.43;;
52248;SDS011;38541;48.130;8.378;2023-09-12T05:43:33;6.30;;;5.45;;
52248;SDS011;38541;48.130;8.378;2023-09-12T05:45:59;6.50;;;5.88;;
52248;SDS011;38541;48.130;8.378;2023-09-12T05:48:26;6.70;;;6.10;;
52248;SDS011;38541;48.130;8.378;2023-09-12T05:50:53;7.90;;;6.80;;
52248;SDS011;38541;48.130;8.378;2023-09-12T05:53:19;7.53;;;6.70;;
52248;SDS011;38541;48.130;8.378;2023-09-12T05:55:46;8.02;;;7.10;;
52248;SDS011;38541;48.130;8.378;2023-09-12T05:58:13;7.28;;;6.38;;
52248;SDS011;38541;48.130;8.378;2023-09-12T06:00:39;6.75;;;6.07;;
52248;SDS011;38541;48.130;8.378;2023-09-12T06:03:06;12.68;;;7.03;;
52248;SDS011;38541;48.130;8.378;2023-09-12T06:05:33;7.88;;;6.35;;
52248;SDS011;38541;48.130;8.378;2023-09-12T06:08:00;6.38;;;5.78;;
52248;SDS011;38541;48.130;8.378;2023-09-12T06:10:26;7.43;;;6.65;;
52248;SDS011;38541;48.130;8.378;2023-09-12T06:12:53;16.65;;;6.68;;
52248;SDS011;38541;48.130;8.378;2023-09-12T06:15:19;6.70;;;5.60;;
52248;SDS011;38541;48.130;8.378;2023-09-12T06:17:46;6.80;;;6.10;;
52248;SDS011;38541;48.130;8.378;2023-09-12T06:20:13;7.32;;;6.40;;
52248;SDS011;38541;48.130;8.378;2023-09-12T06:22:39;6.78;;;6.00;;
52248;SDS011;38541;48.130;8.378;2023-09-12T06:25:06;6.90;;;6.30;;
52248;SDS011;38541;48.130;8.378;2023-09-12T06:27:32;8.68;;;6.07;;
52248;SDS011;38541;48.130;8.378;2023-09-12T06:29:59;7.30;;;6.13;;
52248;SDS011;38541;48.130;8.378;2023-09-12T06:32:26;6.35;;;5.45;;
52248;SDS011;38541;48.130;8.378;2023-09-12T06:34:52;6.50;;;5.90;;
52248;SDS011;38541;48.130;8.378;2023-09-12T06:37:19;6.68;;;6.07;;
52248;SDS011;38541;48.130;8.378;2023-09-12T06:39:48;6.75;;;6.05;;
52248;SDS011;38541;48.130;8.378;2023-09-12T06:42:15;7.25;;;6.55;;
52248;SDS011;38541;48.130;8.378;2023-09-12T06:44:42;6.90;;;6.30;;
52248;SDS011;38541;48.130;8.378;2023-09-12T06:47:09;6.57;;;5.93;;
52248;SDS011;38541;48.130;8.378;2023-09-12T06:49:36;8.82;;;6.30;;
52248;SDS011;38541;48.130;8.378;2023-09-12T06:52:04;6.30;;;5.70;;
52248;SDS011;38541;48.130;8.378;2023-09-12T06:54:32;6.65;;;6.05;;
52248;SDS011;38541;48.130;8.378;2023-09-12T06:56:59;6.53;;;5.95;;
52248;SDS011;38541;48.130;8.378;2023-09-12T06:59:26;5.65;;;5.10;;
52248;SDS011;38541;48.130;8.378;2023-09-12T07:01:52;6.82;;;6.22;;
52248;SDS011;38541;48.130;8.378;2023-09-12T07:04:19;7.95;;;7.15;;
52248;SDS011;38541;48.130;8.378;2023-09-12T07:06:46;7.50;;;6.70;;
52248;SDS011;38541;48.130;8.378;2023-09-12T07:09:12;8.27;;;6.63;;
52248;SDS011;38541;48.130;8.378;2023-09-12T07:11:41;8.05;;;6.63;;
52248;SDS011;38541;48.130;8.378;2023-09-12T07:14:08;7.20;;;6.50;;
52248;SDS011;38541;48.130;8.378;2023-09-12T07:16:36;8.13;;;7.32;;
52248;SDS011;38541;48.130;8.378;2023-09-12T07:19:03;8.75;;;7.85;;
52248;SDS011;38541;48.130;8.378;2023-09-12T07:21:30;7.97;;;7.15;;
52248;SDS011;38541;48.130;8.378;2023-09-12T07:23:57;7.93;;;6.90;;
52248;SDS011;38541;48.130;8.378;2023-09-12T07:26:24;10.48;;;8.48;;
52248;SDS011;38541;48.130;8.378;2023-09-12T07:28:53;8.63;;;7.55;;
52248;SDS011;38541;48.130;8.378;2023-09-12T07:31:20;8.18;;;7.15;;
52248;SDS011;38541;48.130;8.378;2023-09-12T07:33:47;8.45;;;7.18;;
52248;SDS011;38541;48.130;8.378;2023-09-12T07:36:13;7.53;;;6.57;;
52248;SDS011;38541;48.130;8.378;2023-09-12T07:38:40;7.35;;;6.40;;
52248;SDS011;38541;48.130;8.378;2023-09-12T07:41:08;8.43;;;6.80;;
52248;SDS011;38541;48.130;8.378;2023-09-12T07:43:35;7.53;;;6.82;;
52248;SDS011;38541;48.130;8.378;2023-09-12T07:46:01;11.02;;;9.77;;
52248;SDS011;38541;48.130;8.378;2023-09-12T07:48:28;13.48;;;9.43;;
52248;SDS011;38541;48.130;8.378;2023-09-12T07:50:55;11.77;;;8.55;;
52248;SDS011;38541;48.130;8.378;2023-09-12T07:53:21;7.78;;;6.93;;
52248;SDS011;38541;48.130;8.378;2023-09-12T07:55:48;9.27;;;7.68;;
52248;SDS011;38541;48.130;8.378;2023-09-12T07:58:16;11.55;;;9.27;;
52248;SDS011;38541;48.130;8.378;2023-09-12T08:00:47;9.63;;;8.60;;
52248;SDS011;38541;48.130;8.378;2023-09-12T08:03:14;13.10;;;8.75;;
52248;SDS011;38541;48.130;8.378;2023-09-12T08:05:42;10.95;;;8.85;;
52248;SDS011;38541;48.130;8.378;2023-09-12T08:08:08;10.57;;;8.32;;
52248;SDS011;38541;48.130;8.378;2023-09-12T08:10:35;9.63;;;7.50;;
52248;SDS011;38541;48.130;8.378;2023-09-12T08:13:02;9.48;;;6.88;;
52248;SDS011;38541;48.130;8.378;2023-09-12T08:15:28;8.68;;;6.80;;
52248;SDS011;38541;48.130;8.378;2023-09-12T08:17:55;8.15;;;7.25;;
52248;SDS011;38541;48.130;8.378;2023-09-12T08:20:22;6.65;;;5.72;;
52248;SDS011;38541;48.130;8.378;2023-09-12T08:22:48;6.82;;;6.13;;
52248;SDS011;38541;48.130;8.378;2023-09-12T08:25:15;6.60;;;5.90;;
52248;SDS011;38541;48.130;8.378;2023-09-12T08:27:42;5.75;;;4.93;;
52248;SDS011;38541;48.130;8.378;2023-09-12T08:30:10;6.43;;;5.53;;
52248;SDS011;38541;48.130;8.378;2023-09-12T08:32:38;6.13;;;5.43;;
52248;SDS011;38541;48.130;8.378;2023-09-12T08:35:06;5.13;;;4.47;;
52248;SDS011;38541;48.130;8.378;2023-09-12T08:37:33;5.93;;;4.93;;
52248;SDS011;38541;48.130;8.378;2023-09-12T08:40:00;4.88;;;4.47;;
52248;SDS011;38541;48.130;8.378;2023-09-12T08:42:27;6.47;;;4.63;;
52248;SDS011;38541;48.130;8.378;2023-09-12T08:44:56;4.82;;;4.43;;
52248;SDS011;38541;48.130;8.378;2023-09-12T08:47:23;5.47;;;5.00;;
52248;SDS011;38541;48.130;8.378;2023-09-12T08:49:51;5.40;;;4.90;;
52248;SDS011;38541;48.130;8.378;2023-09-12T08:52:18;4.60;;;4.20;;
52248;SDS011;38541;48.130;8.378;2023-09-12T08:54:44;5.15;;;4.70;;
52248;SDS011;38541;48.130;8.378;2023-09-12T08:57:11;5.55;;;5.03;;
52248;SDS011;38541;48.130;8.378;2023-09-12T08:59:39;7.60;;;4.63;;
52248;SDS011;38541;48.130;8.378;2023-09-12T09:02:08;5.40;;;4.90;;
52248;SDS011;38541;48.130;8.378;2023-09-12T09:04:36;5.10;;;4.60;;
52248;SDS011;38541;48.130;8.378;2023-09-12T09:07:05;10.77;;;4.93;;
52248;SDS011;38541;48.130;8.378;2023-09-12T09:09:33;6.95;;;4.93;;
52248;SDS011;38541;48.130;8.378;2023-09-12T09:11:59;5.50;;;5.00;;
52248;SDS011;38541;48.130;8.378;2023-09-12T09:14:26;6.40;;;4.93;;
52248;SDS011;38541;48.130;8.378;2023-09-12T09:16:52;5.93;;;4.68;;
52248;SDS011;38541;48.130;8.378;2023-09-12T09:19:19;5.63;;;5.10;;
52248;SDS011;38541;48.130;8.378;2023-09-12T09:21:46;5.90;;;5.40;;
52248;SDS011;38541;48.130;8.378;2023-09-12T09:24:13;5.68;;;5.18;;
52248;SDS011;38541;48.130;8.378;2023-09-12T09:26:44;5.18;;;4.68;;
52248;SDS011;38541;48.130;8.378;2023-09-12T09:29:15;5.60;;;5.05;;
52248;SDS011;38541;48.130;8.378;2023-09-12T09:31:47;5.03;;;4.63;;
52248;SDS011;38541;48.130;8.378;2023-09-12T09:34:18;5.95;;;5.13;;
52248;SDS011;38541;48.130;8.378;2023-09-12T09:36:47;5.20;;;4.70;;
52248;SDS011;38541;48.130;8.378;2023-09-12T09:39:16;5.18;;;4.72;;
52248;SDS011;38541;48.130;8.378;2023-09-12T09:41:47;6.22;;;5.63;;
52248;SDS011;38541;48.130;8.378;2023-09-12T09:44:15;5.78;;;5.25;;
52248;SDS011;38541;48.130;8.378;2023-09-12T09:46:45;6.03;;;5.20;;
52248;SDS011;38541;48.130;8.378;2023-09-12T09:49:15;5.45;;;4.95;;
52248;SDS011;38541;48.130;8.378;2023-09-12T09:51:45;5.55;;;5.00;;
52248;SDS011;38541;48.130;8.378;2023-09-12T09:54:12;5.80;;;4.82;;
52248;SDS011;38541;48.130;8.378;2023-09-12T09:56:46;4.93;;;4.53;;
52248;SDS011;38541;48.130;8.378;2023-09-12T09:59:15;5.37;;;3.90;;
52248;SDS011;38541;48.130;8.378;2023-09-12T10:01:45;3.95;;;3.65;;
52248;SDS011;38541;48.130;8.378;2023-09-12T10:04:14;4.20;;;3.90;;
52248;SDS011;38541;48.130;8.378;2023-09-12T10:06:45;6.18;;;4.25;;
52248;SDS011;38541;48.130;8.378;2023-09-12T10:09:13;4.10;;;3.70;;
52248;SDS011;38541;48.130;8.378;2023-09-12T10:11:41;4.65;;;4.25;;
52248;SDS011;38541;48.130;8.378;2023-09-12T10:14:09;6.75;;;3.47;;
52248;SDS011;38541;48.130;8.378;2023-09-12T10:16:40;4.10;;;3.67;;
52248;SDS011;38541;48.130;8.378;2023-09-12T10:19:28;4.00;;;3.70;;
52248;SDS011;38541;48.130;8.378;2023-09-12T10:24:47;3.60;;;3.40;;
52248;SDS011;38541;48.130;8.378;2023-09-12T10:27:15;4.25;;;3.85;;
52248;SDS011;38541;48.130;8.378;2023-09-12T10:29:46;4.13;;;3.63;;
52248;SDS011;38541;48.130;8.378;2023-09-12T10:32:16;3.42;;;3.13;;
52248;SDS011;38541;48.130;8.378;2023-09-12T10:34:43;3.80;;;3.40;;
52248;SDS011;38541;48.130;8.378;2023-09-12T10:37:11;4.32;;;3.60;;
52248;SDS011;38541;48.130;8.378;2023-09-12T10:39:42;3.95;;;3.33;;
52248;SDS011;38541;48.130;8.378;2023-09-12T10:42:09;5.80;;;3.35;;
52248;SDS011;38541;48.130;8.378;2023-09-12T10:44:38;3.88;;;3.58;;
52248;SDS011;38541;48.130;8.378;2023-09-12T10:47:05;4.07;;;3.55;;
52248;SDS011;38541;48.130;8.378;2023-09-12T10:49:33;4.13;;;3.72;;
52248;SDS011;38541;48.130;8.378;2023-09-12T10:52:00;4.20;;;3.80;;
52248;SDS011;38541;48.130;8.378;2023-09-12T10:54:37;6.80;;;3.88;;
52248;SDS011;38541;48.130;8.378;2023-09-12T10:57:10;3.97;;;3.67;;
52248;SDS011;38541;48.130;8.378;2023-09-12T11:02:31;4.30;;;3.75;;
52248;SDS011;38541;48.130;8.378;2023-09-12T11:04:58;4.35;;;3.95;;
52248;SDS011;38541;48.130;8.378;2023-09-12T11:12:45;3.78;;;3.47;;
52248;SDS011;38541;48.130;8.378;2023-09-12T11:15:13;3.90;;;3.55;;
52248;SDS011;38541;48.130;8.378;2023-09-12T11:17:41;4.63;;;4.10;;
52248;SDS011;38541;48.130;8.378;2023-09-12T11:20:12;4.53;;;4.13;;
52248;SDS011;38541;48.130;8.378;2023-09-12T11:22:45;4.45;;;4.03;;
52248;SDS011;38541;48.130;8.378;2023-09-12T11:25:20;4.18;;;3.80;;
52248;SDS011;38541;48.130;8.378;2023-09-12T11:30:19;3.75;;;3.45;;
52248;SDS011;38541;48.130;8.378;2023-09-12T11:32:51;3.80;;;3.50;;
52248;SDS011;38541;48.130;8.378;2023-09-12T11:35:23;3.63;;;3.35;;
52248;SDS011;38541;48.130;8.378;2023-09-12T11:37:51;3.60;;;3.30;;
52248;SDS011;38541;48.130;8.378;2023-09-12T11:43:00;4.10;;;3.70;;
52248;SDS011;38541;48.130;8.378;2023-09-12T11:45:27;4.00;;;3.70;;
52248;SDS011;38541;48.130;8.378;2023-09-12T11:47:54;3.78;;;3.47;;
52248;SDS011;38541;48.130;8.378;2023-09-12T11:53:06;4.13;;;3.78;;
52248;SDS011;38541;48.130;8.378;2023-09-12T11:55:46;5.05;;;3.50;;
52248;SDS011;38541;48.130;8.378;2023-09-12T11:58:15;4.20;;;3.90;;
52248;SDS011;38541;48.130;8.378;2023-09-12T12:00:49;3.13;;;2.92;;
52248;SDS011;38541;48.130;8.378;2023-09-12T12:03:18;3.55;;;3.22;;
52248;SDS011;38541;48.130;8.378;2023-09-12T12:05:48;3.72;;;3.42;;
52248;SDS011;38541;48.130;8.378;2023-09-12T12:08:16;3.47;;;3.17;;
52248;SDS011;38541;48.130;8.378;2023-09-12T12:10:50;3.05;;;2.85;;
52248;SDS011;38541;48.130;8.378;2023-09-12T12:13:17;4.15;;;3.50;;
52248;SDS011;38541;48.130;8.378;2023-09-12T12:15:45;3.92;;;3.63;;
52248;SDS011;38541;48.130;8.378;2023-09-12T12:18:12;3.72;;;3.42;;
52248;SDS011;38541;48.130;8.378;2023-09-12T12:20:39;3.58;;;3.38;;
52248;SDS011;38541;48.130;8.378;2023-09-12T12:23:06;3.92;;;3.60;;
52248;SDS011;38541;48.130;8.378;2023-09-12T12:25:33;4.18;;;3.42;;
52248;SDS011;38541;48.130;8.378;2023-09-12T12:28:00;4.25;;;3.72;;
52248;SDS011;38541;48.130;8.378;2023-09-12T12:30:30;3.20;;;3.00;;
52248;SDS011;38541;48.130;8.378;2023-09-12T12:33:00;3.78;;;3.47;;
52248;SDS011;38541;48.130;8.378;2023-09-12T12:36:04;3.55;;;3.25;;
52248;SDS011;38541;48.130;8.378;2023-09-12T12:38:36;3.95;;;3.60;;
52248;SDS011;38541;48.130;8.378;2023-09-12T12:41:13;3.50;;;3.17;;
52248;SDS011;38541;48.130;8.378;2023-09-12T12:43:41;4.70;;;4.30;;
52248;SDS011;38541;48.130;8.378;2023-09-12T12:46:11;4.22;;;3.90;;
52248;SDS011;38541;48.130;8.378;2023-09-12T12:48:42;3.92;;;3.55;;
52248;SDS011;38541;48.130;8.378;2023-09-12T12:51:16;3.50;;;3.20;;
52248;SDS011;38541;48.130;8.378;2023-09-12T12:53:45;3.65;;;3.35;;
52248;SDS011;38541;48.130;8.378;2023-09-12T12:58:56;4.13;;;3.72;;
52248;SDS011;38541;48.130;8.378;2023-09-12T13:01:24;4.30;;;3.90;;
52248;SDS011;38541;48.130;8.378;2023-09-12T13:03:51;4.20;;;3.58;;
52248;SDS011;38541;48.130;8.378;2023-09-12T13:06:19;4.10;;;3.50;;
52248;SDS011;38541;48.130;8.378;2023-09-12T13:08:46;3.85;;;3.45;;
52248;SDS011;38541;48.130;8.378;2023-09-12T13:11:15;3.90;;;3.55;;
52248;SDS011;38541;48.130;8.378;2023-09-12T13:13:44;4.57;;;3.58;;
52248;SDS011;38541;48.130;8.378;2023-09-12T13:16:12;3.50;;;3.20;;
52248;SDS011;38541;48.130;8.378;2023-09-12T13:18:40;3.92;;;3.58;;
52248;SDS011;38541;48.130;8.378;2023-09-12T13:21:07;3.58;;;3.28;;
52248;SDS011;38541;48.130;8.378;2023-09-12T13:23:35;4.40;;;3.67;;
52248;SDS011;38541;48.130;8.378;2023-09-12T13:26:03;3.80;;;3.30;;
52248;SDS011;38541;48.130;8.378;2023-09-12T13:28:30;4.35;;;3.85;;
52248;SDS011;38541;48.130;8.378;2023-09-12T13:30:56;3.70;;;3.40;;
52248;SDS011;38541;48.130;8.378;2023-09-12T13:33:26;3.63;;;3.28;;
52248;SDS011;38541;48.130;8.378;2023-09-12T13:35:53;3.67;;;3.38;;
52248;SDS011;38541;48.130;8.378;2023-09-12T13:38:19;7.03;;;4.70;;
52248;SDS011;38541;48.130;8.378;2023-09-12T13:40:46;3.88;;;3.58;;
52248;SDS011;38541;48.130;8.378;2023-09-12T13:43:13;3.60;;;3.30;;
52248;SDS011;38541;48.130;8.378;2023-09-12T13:45:40;3.50;;;3.20;;
52248;SDS011;38541;48.130;8.378;2023-09-12T13:48:07;3.67;;;3.22;;
52248;SDS011;38541;48.130;8.378;2023-09-12T13:50:34;3.85;;;3.55;;
52248;SDS011;38541;48.130;8.378;2023-09-12T13:53:01;4.72;;;3.60;;
52248;SDS011;38541;48.130;8.378;2023-09-12T13:55:33;3.60;;;3.33;;
52248;SDS011;38541;48.130;8.378;2023-09-12T13:58:07;4.20;;;3.80;;
52248;SDS011;38541;48.130;8.378;2023-09-12T14:00:34;3.30;;;3.10;;
52248;SDS011;38541;48.130;8.378;2023-09-12T14:03:03;3.42;;;3.13;;
52248;SDS011;38541;48.130;8.378;2023-09-12T14:05:30;3.63;;;3.33;;
52248;SDS011;38541;48.130;8.378;2023-09-12T14:07:58;3.90;;;3.60;;
52248;SDS011;38541;48.130;8.378;2023-09-12T14:10:25;3.85;;;3.35;;
52248;SDS011;38541;48.130;8.378;2023-09-12T14:13:02;4.22;;;3.50;;
52248;SDS011;38541;48.130;8.378;2023-09-12T14:15:46;4.78;;;3.72;;
52248;SDS011;38541;48.130;8.378;2023-09-12T14:18:13;3.47;;;3.25;;
52248;SDS011;38541;48.130;8.378;2023-09-12T14:20:40;5.75;;;3.17;;
52248;SDS011;38541;48.130;8.378;2023-09-12T14:23:08;3.85;;;3.50;;
52248;SDS011;38541;48.130;8.378;2023-09-12T14:25:35;3.75;;;3.45;;
52248;SDS011;38541;48.130;8.378;2023-09-12T14:28:02;3.78;;;3.47;;
52248;SDS011;38541;48.130;8.378;2023-09-12T14:30:31;3.67;;;3.38;;
52248;SDS011;38541;48.130;8.378;2023-09-12T14:33:02;3.22;;;3.03;;
52248;SDS011;38541;48.130;8.378;2023-09-12T14:35:29;3.45;;;3.15;;
52248;SDS011;38541;48.130;8.378;2023-09-12T14:37:56;3.80;;;3.50;;
52248;SDS011;38541;48.130;8.378;2023-09-12T14:40:23;4.30;;;3.15;;
52248;SDS011;38541;48.130;8.378;2023-09-12T14:42:49;3.85;;;3.55;;
52248;SDS011;38541;48.130;8.378;2023-09-12T14:45:16;3.55;;;3.25;;
52248;SDS011;38541;48.130;8.378;2023-09-12T14:47:43;3.42;;;3.22;;
52248;SDS011;38541;48.130;8.378;2023-09-12T14:50:10;3.67;;;3.38;;
52248;SDS011;38541;48.130;8.378;2023-09-12T14:52:36;4.20;;;3.65;;
52248;SDS011;38541;48.130;8.378;2023-09-12T14:55:05;3.88;;;3.47;;
52248;SDS011;38541;48.130;8.378;2023-09-12T14:57:33;4.65;;;3.50;;
52248;SDS011;38541;48.130;8.378;2023-09-12T15:00:00;3.50;;;3.20;;
52248;SDS011;38541;48.130;8.378;2023-09-12T15:02:27;4.70;;;3.42;;
52248;SDS011;38541;48.130;8.378;2023-09-12T15:04:58;4.05;;;3.65;;
52248;SDS011;38541;48.130;8.378;2023-09-12T15:07:25;4.05;;;3.70;;
52248;SDS011;38541;48.130;8.378;2023-09-12T15:09:51;5.53;;;3.35;;
52248;SDS011;38541;48.130;8.378;2023-09-12T15:12:18;4.28;;;3.10;;
52248;SDS011;38541;48.130;8.378;2023-09-12T15:14:44;3.20;;;3.00;;
52248;SDS011;38541;48.130;8.378;2023-09-12T15:17:11;3.08;;;2.88;;